New Milford, Illinois
Current Conditions -  °F | °C
As of 3:54 PM on Wednesday 22 Oct 2014 (Local Time) from KRFD Reporting Station
Clear Clear  
Wind Chill: 59°   Ceiling: Unl
Heat Index: 59°   Visibility: 10mi
Dew Point: 35°   Wind: 8mph
Humidity: 41%   Direction: 170°S
Pressure: 30.28"   Gusts: NA
Location:  42.1929°N, 89.0567°W
Report Text: KRFD 222054Z 17007KT 10SM CLR 15/02 A3028 RMK AO2 SLP257 T01500017 56023
Loading
Personal Weather Stations






























Interactive Weather Map
Tropical Storm Tracking
New forecast layout! Learn more

10-Day Weather Forecast

Advertisements
Track Severe Weather on mobile